Time;durP1;ratioP1;P1;durP2;ratioP2;P2;SDS_P1;SDS_P2;PMS_P1;PMS_P2;Temp;Humidity;BMP_temperature;BMP_pressure;BME280_temperature;BME280_humidity;BME280_pressure;Samples;Min_cycle;Max_cycle;Signal;HPM_P1;HPM_P2
2022/06/14 00:01:34;;;;;;;14.20;2.72;;;;;;;;;;5085413;28;20040;-75
2022/06/14 00:04:00;;;;;;;14.07;2.90;;;;;;;;;;5090487;28;20063;-74
2022/06/14 00:06:28;;;;;;;10.15;2.80;;;;;;;;;;5088609;28;20087;-74
2022/06/14 00:08:54;;;;;;;11.20;2.72;;;;;;;;;;5088708;28;20052;-74
2022/06/14 00:11:25;;;;;;;14.43;3.08;;;;;;;;;;5083789;28;20049;-74
2022/06/14 00:13:52;;;;;;;11.43;2.70;;;;;;;;;;5091697;28;20024;-74
2022/06/14 00:16:19;;;;;;;14.35;2.50;;;;;;;;;;5095075;28;20029;-74
2022/06/14 00:18:45;;;;;;;14.45;3.10;;;;;;;;;;5083114;28;20021;-74
2022/06/14 00:21:11;;;;;;;9.93;3.20;;;;;;;;;;5093980;28;20044;-74
2022/06/14 00:23:37;;;;;;;9.90;2.13;;;;;;;;;;5091142;28;20127;-74
2022/06/14 00:26:04;;;;;;;10.63;2.70;;;;;;;;;;5093607;28;20036;-74
2022/06/14 00:28:31;;;;;;;14.30;2.70;;;;;;;;;;5079280;28;20048;-74
2022/06/14 00:31:00;;;;;;;13.50;3.00;;;;;;;;;;5086293;28;20056;-74
2022/06/14 00:33:26;;;;;;;12.77;2.95;;;;;;;;;;5079208;28;20093;-74
2022/06/14 00:36:03;;;;;;;11.40;2.70;;;;;;;;;;5095908;28;20090;-74
2022/06/14 00:38:29;;;;;;;12.82;2.78;;;;;;;;;;5086638;28;20051;-74
2022/06/14 00:40:57;;;;;;;11.52;2.60;;;;;;;;;;5096240;28;20082;-74
2022/06/14 00:43:24;;;;;;;12.15;2.70;;;;;;;;;;5083215;28;20025;-74
2022/06/14 00:45:50;;;;;;;11.35;2.85;;;;;;;;;;5096577;28;20193;-74
2022/06/14 00:48:21;;;;;;;13.95;3.22;;;;;;;;;;5086381;28;20025;-75
2022/06/14 00:50:54;;;;;;;9.98;2.50;;;;;;;;;;5078316;28;20053;-74
2022/06/14 00:53:25;;;;;;;13.60;2.90;;;;;;;;;;5077073;28;20028;-74
2022/06/14 00:55:57;;;;;;;14.40;3.13;;;;;;;;;;5098259;28;20112;-74
2022/06/14 00:58:26;;;;;;;9.75;2.90;;;;;;;;;;5098063;28;20020;-75
2022/06/14 01:00:57;;;;;;;10.82;2.85;;;;;;;;;;5085316;28;20028;-74
2022/06/14 01:03:25;;;;;;;12.95;3.08;;;;;;;;;;5097643;28;20028;-74
2022/06/14 01:06:06;;;;;;;12.95;2.75;;;;;;;;;;5093374;28;20029;-74
2022/06/14 01:08:32;;;;;;;;;;;;;;;;;;5087176;28;20047;-74
2022/06/14 01:10:58;;;;;;;11.98;3.20;;;;;;;;;;5100986;28;19905;-74
2022/06/14 01:13:25;;;;;;;14.07;3.15;;;;;;;;;;5096662;28;20021;-74
2022/06/14 01:15:53;;;;;;;14.55;3.10;;;;;;;;;;5099798;28;20028;-74
2022/06/14 01:18:19;;;;;;;13.45;3.25;;;;;;;;;;5094201;28;20093;-74
2022/06/14 01:20:45;;;;;;;16.48;3.35;;;;;;;;;;5090632;28;20045;-74
2022/06/14 01:23:13;;;;;;;15.52;3.25;;;;;;;;;;5091100;28;20029;-74
2022/06/14 01:25:41;;;;;;;10.10;2.83;;;;;;;;;;5100344;28;20036;-74
2022/06/14 01:28:07;;;;;;;9.73;2.80;;;;;;;;;;5086998;28;20040;-74
2022/06/14 01:30:34;;;;;;;12.25;2.95;;;;;;;;;;5094657;28;20017;-74
2022/06/14 01:33:03;;;;;;;15.20;3.25;;;;;;;;;;5094855;28;20033;-74
2022/06/14 01:35:35;;;;;;;14.70;3.58;;;;;;;;;;5096185;28;20025;-74
2022/06/14 01:38:02;;;;;;;12.38;3.33;;;;;;;;;;5080651;28;20080;-74
2022/06/14 01:40:33;;;;;;;14.80;3.40;;;;;;;;;;5079842;28;20085;-73
2022/06/14 01:43:02;;;;;;;10.40;3.22;;;;;;;;;;5081106;28;20037;-74
2022/06/14 01:45:52;;;;;;;17.33;3.55;;;;;;;;;;5087439;28;20084;-74
2022/06/14 01:48:42;;;;;;;11.70;3.15;;;;;;;;;;5082176;28;20085;-74
2022/06/14 01:54:13;;;;;;;11.13;2.92;;;;;;;;;;5091500;28;20082;-74
2022/06/14 01:56:39;;;;;;;;;;;;;;;;;;5079992;28;20017;-75
2022/06/14 01:59:05;;;;;;;12.23;2.95;;;;;;;;;;5084843;28;19920;-75
2022/06/14 02:01:35;;;;;;;11.80;3.17;;;;;;;;;;5097315;28;20105;-74
2022/06/14 02:07:02;;;;;;;8.85;2.90;;;;;;;;;;5078406;28;20037;-74
2022/06/14 02:09:40;;;;;;;10.48;2.75;;;;;;;;;;5079936;28;20064;-74
2022/06/14 02:12:09;;;;;;;13.60;3.10;;;;;;;;;;5078204;28;20049;-74
2022/06/14 02:14:47;;;;;;;13.55;3.33;;;;;;;;;;5090879;28;20119;-75
2022/06/14 02:17:15;;;;;;;13.77;2.88;;;;;;;;;;5090339;28;20104;-75
2022/06/14 02:19:48;;;;;;;13.70;3.08;;;;;;;;;;5123556;28;20074;-74
2022/06/14 02:22:17;;;;;;;15.27;3.08;;;;;;;;;;5089007;28;20037;-75
2022/06/14 02:24:51;;;;;;;9.85;2.90;;;;;;;;;;5083194;28;20029;-74
2022/06/14 02:27:25;;;;;;;12.05;3.13;;;;;;;;;;5098592;28;20039;-74
2022/06/14 02:29:57;;;;;;;15.23;3.15;;;;;;;;;;5091572;28;20136;-74
2022/06/14 02:32:27;;;;;;;14.25;2.85;;;;;;;;;;5078238;28;20479;-74
2022/06/14 02:35:00;;;;;;;9.32;2.88;;;;;;;;;;5088865;28;20131;-74
2022/06/14 02:37:35;;;;;;;10.20;2.92;;;;;;;;;;5078327;28;20043;-74
2022/06/14 02:40:04;;;;;;;11.02;2.95;;;;;;;;;;5091638;28;20028;-75
2022/06/14 02:42:33;;;;;;;10.18;2.80;;;;;;;;;;5096237;28;20037;-74
2022/06/14 02:45:12;;;;;;;14.18;2.80;;;;;;;;;;5080444;28;20110;-74
2022/06/14 02:47:42;;;;;;;12.52;3.50;;;;;;;;;;5094703;28;20029;-74
2022/06/14 02:50:12;;;;;;;14.45;4.00;;;;;;;;;;5080894;28;20037;-74
2022/06/14 02:52:46;;;;;;;12.10;3.30;;;;;;;;;;5093613;28;20054;-75
2022/06/14 02:55:14;;;;;;;11.93;3.22;;;;;;;;;;5060340;28;20083;-75
2022/06/14 02:57:44;;;;;;;11.07;3.58;;;;;;;;;;5077062;28;20037;-74
2022/06/14 03:00:11;;;;;;;11.93;3.67;;;;;;;;;;5090689;28;20068;-74
2022/06/14 03:02:43;;;;;;;16.15;3.60;;;;;;;;;;5094781;28;20064;-74
2022/06/14 03:05:15;;;;;;;13.02;4.00;;;;;;;;;;5080202;28;20028;-74
2022/06/14 03:07:47;;;;;;;16.40;4.13;;;;;;;;;;5088407;28;20056;-74
2022/06/14 03:10:13;;;;;;;13.00;4.15;;;;;;;;;;5082476;28;20132;-74
2022/06/14 03:12:47;;;;;;;14.35;4.63;;;;;;;;;;5109330;28;20049;-75
2022/06/14 03:15:31;;;;;;;12.88;4.38;;;;;;;;;;5095797;28;20068;-74
2022/06/14 03:18:09;;;;;;;11.32;3.78;;;;;;;;;;5094498;28;20036;-74
2022/06/14 03:20:38;;;;;;;11.90;3.88;;;;;;;;;;5087079;28;20048;-74
2022/06/14 03:23:04;;;;;;;9.75;3.72;;;;;;;;;;5090647;28;20028;-75
2022/06/14 03:25:49;;;;;;;11.35;4.78;;;;;;;;;;5094609;28;20054;-74
2022/06/14 03:28:19;;;;;;;15.52;4.38;;;;;;;;;;5088071;28;20041;-74
2022/06/14 03:31:00;;;;;;;9.50;4.07;;;;;;;;;;5097823;28;20028;-74
2022/06/14 03:33:43;;;;;;;13.85;4.95;;;;;;;;;;5095883;28;20056;-74
2022/06/14 03:36:10;;;;;;;11.57;4.18;;;;;;;;;;5090897;28;20033;-74
2022/06/14 03:38:53;;;;;;;12.88;4.38;;;;;;;;;;5091317;28;20032;-73
2022/06/14 03:41:21;;;;;;;15.25;4.53;;;;;;;;;;5083351;28;20040;-74
2022/06/14 03:43:48;;;;;;;12.93;4.72;;;;;;;;;;5095318;28;20037;-74
2022/06/14 03:46:17;;;;;;;14.20;4.53;;;;;;;;;;5083607;28;20032;-74
2022/06/14 03:48:45;;;;;;;16.05;4.78;;;;;;;;;;5079658;28;20135;-74
2022/06/14 03:51:14;;;;;;;12.90;4.60;;;;;;;;;;5095406;28;20040;-75
2022/06/14 03:53:47;;;;;;;16.60;5.10;;;;;;;;;;5089207;28;20040;-74
2022/06/14 03:56:19;;;;;;;12.57;4.80;;;;;;;;;;5078207;28;20098;-74
2022/06/14 03:58:52;;;;;;;16.58;4.95;;;;;;;;;;5078551;28;20106;-74
2022/06/14 04:01:24;;;;;;;13.50;4.90;;;;;;;;;;5078250;28;20049;-74
2022/06/14 04:04:00;;;;;;;12.13;4.47;;;;;;;;;;5090090;28;20080;-74
2022/06/14 04:06:38;;;;;;;12.15;4.50;;;;;;;;;;5084176;28;20125;-74
2022/06/14 04:09:07;;;;;;;16.55;4.85;;;;;;;;;;5080722;28;20079;-74
2022/06/14 04:11:45;;;;;;;15.30;4.47;;;;;;;;;;5095685;28;20032;-74
2022/06/14 04:14:30;;;;;;;12.57;5.10;;;;;;;;;;5095925;28;20032;-74
2022/06/14 04:17:11;;;;;;;10.90;4.40;;;;;;;;;;5094368;28;20048;-74
2022/06/14 04:20:00;;;;;;;12.55;4.32;;;;;;;;;;5083843;28;20044;-75
2022/06/14 04:22:50;;;;;;;11.35;3.72;;;;;;;;;;5081199;28;20041;-74
2022/06/14 04:25:16;;;;;;;11.38;3.80;;;;;;;;;;5080306;28;20123;-74
2022/06/14 04:27:52;;;;;;;13.27;3.92;;;;;;;;;;5087161;28;20064;-74
2022/06/14 04:30:25;;;;;;;17.15;4.32;;;;;;;;;;5085341;28;20489;-73
2022/06/14 04:32:54;;;;;;;15.38;3.88;;;;;;;;;;5082406;28;20056;-74
2022/06/14 04:35:25;;;;;;;13.57;4.63;;;;;;;;;;5084759;28;20045;-73
2022/06/14 04:37:52;;;;;;;12.27;3.88;;;;;;;;;;5075702;28;20064;-74
2022/06/14 04:40:25;;;;;;;9.98;3.88;;;;;;;;;;5088442;28;20041;-74
2022/06/14 04:43:01;;;;;;;13.75;3.22;;;;;;;;;;5086168;28;20123;-74
2022/06/14 04:45:41;;;;;;;14.38;3.88;;;;;;;;;;5086301;28;20056;-74
2022/06/14 04:48:14;;;;;;;14.25;3.30;;;;;;;;;;5082172;28;20066;-73
2022/06/14 04:50:45;;;;;;;11.95;3.92;;;;;;;;;;5087581;28;20058;-73
2022/06/14 04:53:14;;;;;;;13.00;3.67;;;;;;;;;;5072517;28;20065;-74
2022/06/14 04:55:45;;;;;;;13.80;4.13;;;;;;;;;;5072488;28;20084;-73
2022/06/14 04:58:13;;;;;;;14.10;3.73;;;;;;;;;;5077521;28;20051;-73
2022/06/14 05:00:44;;;;;;;13.07;3.50;;;;;;;;;;5069811;28;20101;-73
2022/06/14 05:03:16;;;;;;;12.82;3.65;;;;;;;;;;5083272;28;20070;-74
2022/06/14 05:05:48;;;;;;;11.30;3.80;;;;;;;;;;5089562;28;20044;-73
2022/06/14 05:08:19;;;;;;;11.15;3.45;;;;;;;;;;5088191;28;20048;-74
2022/06/14 05:11:06;;;;;;;11.15;3.70;;;;;;;;;;5092371;28;20071;-74
2022/06/14 05:13:41;;;;;;;10.65;4.13;;;;;;;;;;5086090;28;20048;-73
2022/06/14 05:16:29;;;;;;;16.02;3.63;;;;;;;;;;5092955;28;20094;-74
2022/06/14 05:19:09;;;;;;;10.05;3.67;;;;;;;;;;5087279;28;20029;-73
2022/06/14 05:21:41;;;;;;;10.25;3.50;;;;;;;;;;5083144;28;20095;-73
2022/06/14 05:24:08;;;;;;;15.27;3.50;;;;;;;;;;5089855;28;20045;-74
2022/06/14 05:26:53;;;;;;;11.82;2.97;;;;;;;;;;5082626;28;20045;-74
2022/06/14 05:29:29;;;;;;;11.38;3.30;;;;;;;;;;5077439;28;20091;-74
2022/06/14 05:31:55;;;;;;;10.27;3.30;;;;;;;;;;5075695;28;20045;-74
2022/06/14 05:34:27;;;;;;;15.82;3.85;;;;;;;;;;5074838;28;20037;-74
2022/06/14 05:37:09;;;;;;;11.73;3.33;;;;;;;;;;5091463;28;20052;-74
2022/06/14 05:39:43;;;;;;;8.75;3.25;;;;;;;;;;5072731;28;20045;-74
2022/06/14 05:42:13;;;;;;;11.10;2.75;;;;;;;;;;5088609;28;20120;-75
2022/06/14 05:44:42;;;;;;;11.45;2.78;;;;;;;;;;5088332;28;20059;-74
2022/06/14 05:47:16;;;;;;;9.77;2.70;;;;;;;;;;5090898;28;20043;-74
2022/06/14 05:50:02;;;;;;;10.32;3.03;;;;;;;;;;5085510;28;20051;-74
2022/06/14 05:52:37;;;;;;;9.38;2.83;;;;;;;;;;5088239;28;20041;-75
2022/06/14 05:55:04;;;;;;;11.68;2.92;;;;;;;;;;5086248;28;20028;-74
2022/06/14 05:57:35;;;;;;;9.15;2.67;;;;;;;;;;5094021;28;20040;-74
2022/06/14 06:00:10;;;;;;;9.52;2.30;;;;;;;;;;5089165;28;20037;-75
2022/06/14 06:02:59;;;;;;;11.73;2.55;;;;;;;;;;5080286;28;20071;-75
2022/06/14 06:05:28;;;;;;;10.00;2.38;;;;;;;;;;5086789;28;20052;-74
2022/06/14 06:07:57;;;;;;;11.00;2.58;;;;;;;;;;5063511;28;20048;-75
2022/06/14 06:10:44;;;;;;;9.10;2.28;;;;;;;;;;5059343;28;20044;-74
2022/06/14 06:13:13;;;;;;;12.23;2.53;;;;;;;;;;5068536;28;20052;-74
2022/06/14 06:15:42;;;;;;;9.82;2.33;;;;;;;;;;5056960;28;20056;-75
2022/06/14 06:18:15;;;;;;;11.57;2.47;;;;;;;;;;5072337;28;20052;-74
2022/06/14 06:20:53;;;;;;;9.93;2.10;;;;;;;;;;5058254;28;20170;-74
2022/06/14 06:23:25;;;;;;;14.23;3.17;;;;;;;;;;5056378;28;20044;-74
2022/06/14 06:25:54;;;;;;;11.52;2.67;;;;;;;;;;5056838;28;20045;-74
2022/06/14 06:28:27;;;;;;;9.45;2.40;;;;;;;;;;5056516;28;20041;-74
2022/06/14 06:31:04;;;;;;;9.35;2.47;;;;;;;;;;5056148;28;20052;-74
2022/06/14 06:33:33;;;;;;;10.40;2.67;;;;;;;;;;5087648;28;20487;-74
2022/06/14 06:36:05;;;;;;;9.05;2.60;;;;;;;;;;5059214;28;20063;-74
2022/06/14 06:38:36;;;;;;;8.68;2.25;;;;;;;;;;5076068;28;20040;-75
2022/06/14 06:43:52;;;;;;;9.43;2.38;;;;;;;;;;5058140;28;20052;-74
2022/06/14 06:46:19;;;;;;;8.82;2.10;;;;;;;;;;5071318;28;20102;-74
2022/06/14 06:48:48;;;;;;;9.75;2.42;;;;;;;;;;5074673;28;20048;-75
2022/06/14 06:51:16;;;;;;;9.35;2.17;;;;;;;;;;5074361;28;20052;-75
2022/06/14 06:53:45;;;;;;;13.70;2.97;;;;;;;;;;5072131;28;20048;-75
2022/06/14 06:56:16;;;;;;;10.48;2.38;;;;;;;;;;5069307;28;20076;-74
2022/06/14 06:58:51;;;;;;;12.15;2.38;;;;;;;;;;5081907;28;20414;-75
2022/06/14 07:01:23;;;;;;;9.50;1.90;;;;;;;;;;5066401;28;20053;-75
2022/06/14 07:03:52;;;;;;;10.00;2.33;;;;;;;;;;5073678;28;20049;-75
2022/06/14 07:06:26;;;;;;;12.70;2.28;;;;;;;;;;5068033;28;20041;-74
2022/06/14 07:08:56;;;;;;;9.57;2.10;;;;;;;;;;5064680;28;20135;-74
2022/06/14 07:11:24;;;;;;;9.15;2.25;;;;;;;;;;5072975;28;20044;-74
2022/06/14 07:13:56;;;;;;;7.30;2.08;;;;;;;;;;5090297;28;20044;-74
2022/06/14 07:16:25;;;;;;;9.43;2.30;;;;;;;;;;5075237;28;20162;-74
2022/06/14 07:18:57;;;;;;;8.25;2.22;;;;;;;;;;5087114;28;20048;-74
2022/06/14 07:21:27;;;;;;;8.80;1.92;;;;;;;;;;5078887;28;20041;-75
2022/06/14 07:24:25;;;;;;;10.48;2.20;;;;;;;;;;5082613;28;20045;-75
2022/06/14 07:26:54;;;;;;;11.57;1.77;;;;;;;;;;5076709;28;20048;-75
2022/06/14 07:29:25;;;;;;;9.60;2.05;;;;;;;;;;5081593;28;20094;-75
2022/06/14 07:31:58;;;;;;;10.13;2.05;;;;;;;;;;5075418;28;20048;-74
2022/06/14 07:34:25;;;;;;;8.48;2.00;;;;;;;;;;5081931;28;20053;-74
2022/06/14 07:37:09;;;;;;;7.57;2.08;;;;;;;;;;5075671;28;20053;-74
2022/06/14 07:39:35;;;;;;;9.80;2.13;;;;;;;;;;5082411;28;20049;-74
2022/06/14 07:42:05;;;;;;;7.55;1.73;;;;;;;;;;5074021;28;20487;-75
2022/06/14 07:44:46;;;;;;;6.90;1.30;;;;;;;;;;5087247;28;20056;-75
2022/06/14 07:47:12;;;;;;;;;;;;;;;;;;5071023;28;20292;-74
2022/06/14 07:49:44;;;;;;;8.88;1.90;;;;;;;;;;5079077;28;19927;-75
2022/06/14 07:52:14;;;;;;;7.78;1.70;;;;;;;;;;5083148;28;20036;-75
2022/06/14 07:54:42;;;;;;;5.53;1.30;;;;;;;;;;5073383;28;20100;-75
2022/06/14 07:57:12;;;;;;;8.60;1.88;;;;;;;;;;5077345;28;20048;-75
2022/06/14 07:59:50;;;;;;;7.47;1.60;;;;;;;;;;5093901;28;20041;-74
2022/06/14 08:02:19;;;;;;;6.40;1.42;;;;;;;;;;5094238;28;20044;-74
2022/06/14 08:04:56;;;;;;;7.90;1.50;;;;;;;;;;5095451;28;20058;-74
2022/06/14 08:07:22;;;;;;;8.52;1.60;;;;;;;;;;5096333;28;20035;-74
2022/06/14 08:10:00;;;;;;;7.22;1.38;;;;;;;;;;5093009;28;20104;-74
2022/06/14 08:12:34;;;;;;;6.20;1.42;;;;;;;;;;5089067;28;20052;-74
2022/06/14 08:15:01;;;;;;;8.63;1.90;;;;;;;;;;5079601;28;20052;-75
2022/06/14 08:17:38;;;;;;;8.15;1.55;;;;;;;;;;5091422;28;20047;-75
2022/06/14 08:20:11;;;;;;;6.35;1.50;;;;;;;;;;5075262;28;20104;-74
2022/06/14 08:22:40;;;;;;;7.15;1.63;;;;;;;;;;5077865;28;21448;-75
2022/06/14 08:25:11;;;;;;;8.15;1.65;;;;;;;;;;5079859;28;20040;-76
2022/06/14 08:27:40;;;;;;;6.53;1.30;;;;;;;;;;5090997;28;20037;-77
2022/06/14 08:30:09;;;;;;;7.47;1.52;;;;;;;;;;5092120;28;20041;-75
2022/06/14 08:32:43;;;;;;;7.18;1.50;;;;;;;;;;5086582;28;20048;-75
2022/06/14 08:35:16;;;;;;;6.88;1.50;;;;;;;;;;5075164;28;20027;-76
2022/06/14 08:37:45;;;;;;;9.07;1.70;;;;;;;;;;5075619;28;20044;-77
2022/06/14 08:40:23;;;;;;;8.50;1.50;;;;;;;;;;5068396;28;20469;-76
2022/06/14 08:42:52;;;;;;;7.20;1.50;;;;;;;;;;5062295;28;20068;-76
2022/06/14 08:45:25;;;;;;;6.03;1.38;;;;;;;;;;5067543;28;20063;-76
2022/06/14 08:48:10;;;;;;;7.57;1.75;;;;;;;;;;5065428;28;20123;-76
2022/06/14 08:50:55;;;;;;;8.88;2.05;;;;;;;;;;5068879;28;20052;-77
2022/06/14 08:53:30;;;;;;;8.18;2.10;;;;;;;;;;5057222;28;20507;-76
2022/06/14 08:56:02;;;;;;;6.95;1.52;;;;;;;;;;5058357;28;20128;-76
2022/06/14 08:58:28;;;;;;;6.22;1.40;;;;;;;;;;5067444;28;20431;-75
2022/06/14 09:01:00;;;;;;;6.63;2.10;;;;;;;;;;5068111;28;20044;-76
2022/06/14 09:03:41;;;;;;;5.20;1.30;;;;;;;;;;5070548;28;20053;-75
2022/06/14 09:06:07;;;;;;;6.13;1.20;;;;;;;;;;5091222;28;20033;-76
2022/06/14 09:08:42;;;;;;;6.28;1.30;;;;;;;;;;5084733;28;20037;-75
2022/06/14 09:11:14;;;;;;;29.27;4.38;;;;;;;;;;5080476;28;20070;-74
2022/06/14 09:13:40;;;;;;;7.15;2.10;;;;;;;;;;5073304;28;20106;-75
2022/06/14 09:16:25;;;;;;;6.53;1.60;;;;;;;;;;5062589;28;20041;-74
2022/06/14 09:18:54;;;;;;;19.70;2.78;;;;;;;;;;5076139;28;20071;-74
2022/06/14 09:21:29;;;;;;;7.95;1.45;;;;;;;;;;5072134;28;20051;-75
2022/06/14 09:23:55;;;;;;;8.25;1.27;;;;;;;;;;5071134;28;20071;-75
2022/06/14 09:26:31;;;;;;;8.95;1.50;;;;;;;;;;5067504;28;20055;-75
2022/06/14 09:29:04;;;;;;;9.68;1.90;;;;;;;;;;5069882;28;20414;-76
2022/06/14 09:31:39;;;;;;;6.95;1.30;;;;;;;;;;5079678;28;20071;-75
2022/06/14 09:34:05;;;;;;;6.43;1.77;;;;;;;;;;5102400;28;20049;-75
2022/06/14 09:36:40;;;;;;;8.63;1.38;;;;;;;;;;5076281;28;20099;-75
2022/06/14 09:39:16;;;;;;;7.85;1.38;;;;;;;;;;5093492;28;20044;-75
2022/06/14 09:41:50;;;;;;;6.32;1.38;;;;;;;;;;5072298;28;20045;-75
2022/06/14 09:44:36;;;;;;;5.28;1.25;;;;;;;;;;5067825;28;20060;-75
2022/06/14 09:47:04;;;;;;;6.82;1.20;;;;;;;;;;5081683;28;20059;-76
2022/06/14 09:49:40;;;;;;;5.47;1.13;;;;;;;;;;5111513;28;20029;-76
2022/06/14 09:52:25;;;;;;;7.18;1.45;;;;;;;;;;5078492;28;20053;-77
2022/06/14 09:55:27;;;;;;;5.88;1.38;;;;;;;;;;5086593;28;20066;-77
2022/06/14 09:58:01;;;;;;;5.82;1.50;;;;;;;;;;5045013;28;20049;-76
2022/06/14 10:00:38;;;;;;;6.50;1.48;;;;;;;;;;5043308;28;20062;-77
2022/06/14 10:03:04;;;;;;;4.57;1.52;;;;;;;;;;5028574;28;20038;-76
2022/06/14 10:05:33;;;;;;;7.47;1.75;;;;;;;;;;5023868;28;20045;-77
2022/06/14 10:08:03;;;;;;;8.57;1.42;;;;;;;;;;5024097;28;20052;-76
2022/06/14 10:10:29;;;;;;;11.32;2.40;;;;;;;;;;5036680;28;20046;-77
2022/06/14 10:12:55;;;;;;;5.60;1.20;;;;;;;;;;5020976;28;20088;-76
2022/06/14 10:15:28;;;;;;;8.20;1.30;;;;;;;;;;5018652;28;20045;-76
2022/06/14 10:17:57;;;;;;;5.90;1.25;;;;;;;;;;5024986;28;20049;-76
2022/06/14 10:20:41;;;;;;;7.32;1.60;;;;;;;;;;5025999;28;20069;-77
2022/06/14 10:23:16;;;;;;;6.22;1.30;;;;;;;;;;5027975;28;20049;-77
2022/06/14 10:28:41;;;;;;;8.60;1.40;;;;;;;;;;5036107;28;20045;-77
2022/06/14 10:31:11;;;;;;;6.15;1.10;;;;;;;;;;5045712;28;20479;-76
2022/06/14 10:33:43;;;;;;;6.80;1.37;;;;;;;;;;5059499;28;20406;-76
2022/06/14 10:36:28;;;;;;;7.43;1.00;;;;;;;;;;5070244;28;20315;-76
2022/06/14 10:39:01;;;;;;;5.78;1.23;;;;;;;;;;5081858;28;20113;-76
2022/06/14 10:41:36;;;;;;;5.00;1.00;;;;;;;;;;5063793;28;20076;-76
2022/06/14 10:44:02;;;;;;;6.55;1.30;;;;;;;;;;5059502;28;20057;-76
2022/06/14 10:46:30;;;;;;;5.88;1.35;;;;;;;;;;5060335;28;20045;-76
2022/06/14 10:49:00;;;;;;;4.22;1.15;;;;;;;;;;5082512;28;20052;-76
2022/06/14 10:51:40;;;;;;;5.40;1.13;;;;;;;;;;5081535;28;20055;-77
2022/06/14 10:54:17;;;;;;;7.03;1.20;;;;;;;;;;5069218;28;20071;-76
2022/06/14 10:56:46;;;;;;;5.22;1.15;;;;;;;;;;5068603;28;20410;-75
2022/06/14 10:59:15;;;;;;;9.80;1.40;;;;;;;;;;5081157;28;20040;-77
2022/06/14 11:02:02;;;;;;;6.45;1.40;;;;;;;;;;5072474;28;20041;-78
2022/06/14 11:04:40;;;;;;;5.07;1.50;;;;;;;;;;5061736;28;20502;-76
2022/06/14 11:07:26;;;;;;;3.38;0.90;;;;;;;;;;5069017;28;20032;-77
2022/06/14 11:09:58;;;;;;;6.20;1.30;;;;;;;;;;5077820;28;20442;-76
2022/06/14 11:12:42;;;;;;;6.50;1.40;;;;;;;;;;5071124;28;20045;-78
2022/06/14 11:15:15;;;;;;;5.53;1.20;;;;;;;;;;5083391;28;20044;-75
2022/06/14 11:17:56;;;;;;;5.85;1.25;;;;;;;;;;5077169;28;20051;-77
2022/06/14 11:20:31;;;;;;;7.88;1.65;;;;;;;;;;5061130;28;20044;-76
2022/06/14 11:23:04;;;;;;;5.32;1.10;;;;;;;;;;5061715;28;20054;-77
2022/06/14 11:25:30;;;;;;;6.60;1.40;;;;;;;;;;5059034;28;20130;-76
2022/06/14 11:28:05;;;;;;;8.15;1.55;;;;;;;;;;5062296;28;20074;-78
2022/06/14 11:30:34;;;;;;;5.22;1.50;;;;;;;;;;5078077;28;20040;-77
2022/06/14 11:33:19;;;;;;;5.72;1.30;;;;;;;;;;5064135;28;20052;-76
2022/06/14 11:35:45;;;;;;;5.47;1.15;;;;;;;;;;5063903;28;20047;-77
2022/06/14 11:38:26;;;;;;;7.80;0.90;;;;;;;;;;5074677;28;20044;-76
2022/06/14 11:41:01;;;;;;;4.22;1.13;;;;;;;;;;5073266;28;20144;-75
2022/06/14 11:43:27;;;;;;;7.40;1.10;;;;;;;;;;5071807;28;20457;-79
2022/06/14 11:45:53;;;;;;;6.55;1.48;;;;;;;;;;5069855;28;20049;-77
2022/06/14 11:48:28;;;;;;;6.78;1.30;;;;;;;;;;5059954;28;20506;-77
2022/06/14 11:50:54;;;;;;;7.13;1.30;;;;;;;;;;5067891;28;20068;-77
2022/06/14 11:53:36;;;;;;;4.78;1.10;;;;;;;;;;5061847;28;20099;-77
2022/06/14 11:56:17;;;;;;;5.95;1.27;;;;;;;;;;5073808;28;20055;-77
2022/06/14 11:58:50;;;;;;;3.92;1.05;;;;;;;;;;5090696;28;20451;-76
2022/06/14 12:01:42;;;;;;;6.03;1.20;;;;;;;;;;5091782;28;20052;-76
2022/06/14 12:04:30;;;;;;;7.07;1.52;;;;;;;;;;5075088;28;20457;-76
2022/06/14 12:07:03;;;;;;;6.03;1.33;;;;;;;;;;5070264;28;20410;-74
2022/06/14 12:09:34;;;;;;;5.53;1.27;;;;;;;;;;5056650;28;20052;-75
2022/06/14 12:12:16;;;;;;;5.72;1.17;;;;;;;;;;5094569;28;20051;-75
2022/06/14 12:14:42;;;;;;;4.50;1.10;;;;;;;;;;5065228;28;20033;-75
2022/06/14 12:17:11;;;;;;;4.97;1.23;;;;;;;;;;5067195;28;20103;-75
2022/06/14 12:19:38;;;;;;;6.32;1.27;;;;;;;;;;5056471;28;20052;-75
2022/06/14 12:22:29;;;;;;;6.53;1.17;;;;;;;;;;5058948;28;20041;-75
2022/06/14 12:28:05;;;;;;;6.55;1.10;;;;;;;;;;5056574;28;20045;-75
2022/06/14 12:30:34;;;;;;;6.38;1.30;;;;;;;;;;5069450;28;20044;-75
2022/06/14 12:33:06;;;;;;;7.38;1.15;;;;;;;;;;5065336;28;20483;-75
2022/06/14 12:35:35;;;;;;;6.07;1.00;;;;;;;;;;5061789;28;20053;-75
2022/06/14 12:38:07;;;;;;;6.32;1.30;;;;;;;;;;5076850;28;20044;-75
2022/06/14 12:40:39;;;;;;;5.18;1.05;;;;;;;;;;5074422;28;20052;-75
2022/06/14 12:43:17;;;;;;;4.38;0.93;;;;;;;;;;5065708;28;20041;-75
2022/06/14 12:45:59;;;;;;;4.38;0.80;;;;;;;;;;5068328;28;20106;-75
2022/06/14 12:48:48;;;;;;;5.47;1.17;;;;;;;;;;5070636;28;20502;-75
2022/06/14 12:51:20;;;;;;;4.45;0.93;;;;;;;;;;5062485;28;20078;-75
2022/06/14 12:54:01;;;;;;;5.65;1.40;;;;;;;;;;5068836;28;20096;-75
2022/06/14 12:56:27;;;;;;;;;;;;;;;;;;5062451;28;20479;-75
2022/06/14 12:59:14;;;;;;;5.75;1.13;;;;;;;;;;5077587;28;19927;-75
2022/06/14 13:01:53;;;;;;;5.03;1.10;;;;;;;;;;5078655;28;20051;-75
2022/06/14 13:04:29;;;;;;;4.43;0.82;;;;;;;;;;5072508;28;20444;-75
2022/06/14 13:07:05;;;;;;;3.70;1.00;;;;;;;;;;5072575;28;20056;-74
2022/06/14 13:09:31;;;;;;;6.60;1.23;;;;;;;;;;5078664;28;20052;-74
2022/06/14 13:12:06;;;;;;;5.78;1.10;;;;;;;;;;5089909;28;20499;-74
2022/06/14 13:14:37;;;;;;;6.72;1.20;;;;;;;;;;5087290;28;20079;-74
2022/06/14 13:17:22;;;;;;;6.57;1.30;;;;;;;;;;5083405;28;20067;-74
2022/06/14 13:19:53;;;;;;;6.90;1.30;;;;;;;;;;5073803;28;20054;-74
2022/06/14 13:22:28;;;;;;;5.30;1.40;;;;;;;;;;5067742;28;20040;-74
2022/06/14 13:24:54;;;;;;;5.82;1.15;;;;;;;;;;5084762;28;20097;-74
2022/06/14 13:27:39;;;;;;;5.30;1.10;;;;;;;;;;5082789;28;20499;-74
2022/06/14 13:30:20;;;;;;;5.22;1.10;;;;;;;;;;5063954;28;20048;-74
2022/06/14 13:32:46;;;;;;;;;;;;;;;;;;5079652;28;20047;-74
2022/06/14 13:35:29;;;;;;;3.97;1.00;;;;;;;;;;5080378;28;19920;-74
2022/06/14 13:37:59;;;;;;;4.78;1.13;;;;;;;;;;5085929;28;20123;-74
2022/06/14 13:40:35;;;;;;;5.07;1.23;;;;;;;;;;5079489;28;20059;-74
2022/06/14 13:43:13;;;;;;;3.95;1.00;;;;;;;;;;5083608;28;20037;-74
2022/06/14 13:45:39;;;;;;;5.20;1.10;;;;;;;;;;5081812;28;20553;-74
2022/06/14 13:48:12;;;;;;;4.90;1.00;;;;;;;;;;5074768;28;20048;-74
2022/06/14 13:50:44;;;;;;;4.50;1.10;;;;;;;;;;5080418;28;20056;-74
2022/06/14 13:53:10;;;;;;;5.97;1.20;;;;;;;;;;5113998;28;20040;-74
2022/06/14 13:55:56;;;;;;;3.78;1.08;;;;;;;;;;5094544;28;20394;-74
2022/06/14 13:58:27;;;;;;;4.22;0.98;;;;;;;;;;5073596;28;20060;-74
2022/06/14 14:00:56;;;;;;;6.03;1.30;;;;;;;;;;5077237;28;20399;-74
2022/06/14 14:03:29;;;;;;;6.00;1.38;;;;;;;;;;5097498;28;20092;-74
2022/06/14 14:06:07;;;;;;;6.45;1.35;;;;;;;;;;5107694;28;20044;-74
2022/06/14 14:08:52;;;;;;;6.10;1.40;;;;;;;;;;5070616;28;20040;-73
2022/06/14 14:11:38;;;;;;;6.22;1.30;;;;;;;;;;5090320;28;20128;-74
2022/06/14 14:14:22;;;;;;;8.38;1.70;;;;;;;;;;5082387;28;20037;-75
2022/06/14 14:16:59;;;;;;;4.63;1.30;;;;;;;;;;5085350;28;20051;-74
2022/06/14 14:19:44;;;;;;;7.55;1.27;;;;;;;;;;5085540;28;20092;-73
2022/06/14 14:22:13;;;;;;;7.50;1.42;;;;;;;;;;5090683;28;20048;-74
2022/06/14 14:24:45;;;;;;;7.38;1.33;;;;;;;;;;5079634;28;20041;-74
2022/06/14 14:27:11;;;;;;;4.38;1.27;;;;;;;;;;5085809;28;20063;-75
2022/06/14 14:30:01;;;;;;;7.55;1.50;;;;;;;;;;5075137;28;20028;-74
2022/06/14 14:32:31;;;;;;;5.63;1.45;;;;;;;;;;5084945;28;20052;-74
2022/06/14 14:35:04;;;;;;;6.63;1.40;;;;;;;;;;5090627;28;20047;-74
2022/06/14 14:37:51;;;;;;;5.90;1.13;;;;;;;;;;5103702;28;20059;-75
2022/06/14 14:40:31;;;;;;;5.07;1.02;;;;;;;;;;5093138;28;20105;-75
2022/06/14 14:42:57;;;;;;;5.03;1.40;;;;;;;;;;5079190;28;20053;-75
2022/06/14 14:45:52;;;;;;;5.82;1.35;;;;;;;;;;5081138;28;20065;-75
2022/06/14 14:48:18;;;;;;;6.07;1.38;;;;;;;;;;5072725;28;20049;-75
2022/06/14 14:50:53;;;;;;;9.13;1.25;;;;;;;;;;5078975;28;20059;-75
2022/06/14 14:53:19;;;;;;;7.65;1.40;;;;;;;;;;5082639;28;20403;-75
2022/06/14 14:55:46;;;;;;;5.30;1.20;;;;;;;;;;5070770;28;20049;-75
2022/06/14 14:58:16;;;;;;;5.20;1.30;;;;;;;;;;5070688;28;20037;-75
2022/06/14 15:06:37;;;;;;;6.13;1.70;;;;;;;;;;5070452;28;20040;-74
2022/06/14 15:09:05;;;;;;;6.80;1.40;;;;;;;;;;5064939;28;20041;-74
2022/06/14 15:11:32;;;;;;;5.50;1.23;;;;;;;;;;5080775;28;20037;-75
2022/06/14 15:13:59;;;;;;;6.38;1.30;;;;;;;;;;5082987;28;20033;-75
2022/06/14 15:16:30;;;;;;;7.00;1.20;;;;;;;;;;5091760;28;20044;-75
2022/06/14 15:21:43;;;;;;;5.35;1.33;;;;;;;;;;5060270;28;19928;-75
2022/06/14 15:24:17;;;;;;;5.22;1.15;;;;;;;;;;5083267;28;20049;-75
2022/06/14 15:26:46;;;;;;;6.65;1.45;;;;;;;;;;5082630;28;20044;-75
2022/06/14 15:29:26;;;;;;;5.15;1.40;;;;;;;;;;5060962;28;20056;-75
2022/06/14 15:31:56;;;;;;;6.20;1.20;;;;;;;;;;5076189;28;20044;-75
2022/06/14 15:34:29;;;;;;;6.60;1.38;;;;;;;;;;5079598;28;20056;-75
2022/06/14 15:36:56;;;;;;;5.38;1.38;;;;;;;;;;5084356;28;20043;-75